createdAt,value
2019-05-02T00:00:15.491Z,11.00
2019-05-02T00:02:44.139Z,11.00
2019-05-02T00:05:13.129Z,11.00
2019-05-02T00:07:44.742Z,11.00
2019-05-02T00:10:15.009Z,11.00
2019-05-02T00:12:46.446Z,11.00
2019-05-02T00:15:18.966Z,11.00
2019-05-02T00:17:48.031Z,10.90
2019-05-02T00:20:21.182Z,10.90
2019-05-02T00:22:52.158Z,10.80
2019-05-02T00:25:20.376Z,10.80
2019-05-02T00:27:49.250Z,10.90
2019-05-02T00:30:18.297Z,10.80
2019-05-02T00:32:46.880Z,10.80
2019-05-02T00:35:15.746Z,10.70
2019-05-02T00:37:44.639Z,10.60
2019-05-02T00:40:20.288Z,10.70
2019-05-02T00:42:47.263Z,10.70
2019-05-02T00:45:18.733Z,10.80
2019-05-02T00:47:57.080Z,10.70
2019-05-02T00:50:26.596Z,10.50
2019-05-02T00:52:55.382Z,10.40
2019-05-02T00:55:29.014Z,10.40
2019-05-02T00:57:57.888Z,10.30
2019-05-02T01:00:26.830Z,10.30
2019-05-02T01:02:59.645Z,10.20
2019-05-02T01:05:28.400Z,10.10
2019-05-02T01:08:01.119Z,10.10
2019-05-02T01:10:27.664Z,10.10
2019-05-02T01:12:56.120Z,10.00
2019-05-02T01:15:24.858Z,10.00
2019-05-02T01:17:53.344Z,10.00
2019-05-02T01:20:22.299Z,10.10
2019-05-02T01:22:53.629Z,10.10
2019-05-02T01:25:22.710Z,10.20
2019-05-02T01:28:12.715Z,10.20
2019-05-02T01:30:59.998Z,10.20
2019-05-02T01:33:30.152Z,10.20
2019-05-02T01:36:06.270Z,10.10
2019-05-02T01:38:44.368Z,10.20
2019-05-02T01:41:13.181Z,10.20
2019-05-02T01:43:41.771Z,10.20
2019-05-02T01:46:10.492Z,10.10
2019-05-02T01:48:40.188Z,10.00
2019-05-02T01:51:11.881Z,9.90
2019-05-02T01:53:40.131Z,9.90
2019-05-02T01:56:08.571Z,9.80
2019-05-02T01:58:37.117Z,9.80
2019-05-02T02:01:05.794Z,9.80
2019-05-02T02:03:34.382Z,9.80
2019-05-02T02:06:08.063Z,9.70
2019-05-02T02:08:34.050Z,9.70
2019-05-02T02:11:02.858Z,9.60
2019-05-02T02:13:36.354Z,9.60
2019-05-02T02:16:04.547Z,9.60
2019-05-02T02:18:33.709Z,9.40
2019-05-02T02:21:05.649Z,9.40
2019-05-02T02:23:44.920Z,9.40
2019-05-02T02:26:22.535Z,9.40
2019-05-02T02:28:53.143Z,9.30
2019-05-02T02:31:22.731Z,9.30
2019-05-02T02:33:51.626Z,9.30
2019-05-02T02:36:30.004Z,9.30
2019-05-02T02:38:51.454Z,9.30
2019-05-02T02:41:19.992Z,9.30
2019-05-02T02:43:54.745Z,9.30
2019-05-02T02:46:22.501Z,9.30
2019-05-02T02:48:51.249Z,9.20
2019-05-02T02:51:23.791Z,9.20
2019-05-02T02:53:50.412Z,9.20
2019-05-02T02:56:20.349Z,9.10
2019-05-02T02:58:48.860Z,9.10
2019-05-02T03:01:27.518Z,9.00
2019-05-02T03:03:48.359Z,9.00
2019-05-02T03:06:17.066Z,8.90
2019-05-02T03:08:49.226Z,8.70
2019-05-02T03:11:23.826Z,8.60
2019-05-02T03:14:05.733Z,8.50
2019-05-02T03:16:34.104Z,8.40
2019-05-02T03:19:02.887Z,8.30
2019-05-02T03:21:31.721Z,8.20
2019-05-02T03:24:05.604Z,8.20
2019-05-02T03:26:33.864Z,8.20
2019-05-02T03:29:03.023Z,8.30
2019-05-02T03:31:31.933Z,8.10
2019-05-02T03:34:01.481Z,8.00
2019-05-02T03:36:36.312Z,7.90
2019-05-02T03:39:13.316Z,7.90
2019-05-02T03:41:34.650Z,7.90
2019-05-02T03:44:11.140Z,7.90
2019-05-02T03:46:34.863Z,7.90
2019-05-02T03:49:07.092Z,7.90
2019-05-02T03:51:33.958Z,7.90
2019-05-02T03:54:07.738Z,7.90
2019-05-02T03:56:32.861Z,7.70
2019-05-02T03:59:01.402Z,7.70
2019-05-02T04:01:34.804Z,7.60
2019-05-02T04:04:00.825Z,7.50
2019-05-02T04:06:30.711Z,7.40
2019-05-02T04:09:01.794Z,7.40
2019-05-02T04:11:38.388Z,7.40
2019-05-02T04:14:00.862Z,7.40
2019-05-02T04:16:30.145Z,7.50
2019-05-02T04:19:01.314Z,7.60
2019-05-02T04:21:30.500Z,7.50
2019-05-02T04:24:13.008Z,7.60
2019-05-02T04:26:30.208Z,7.70
2019-05-02T04:28:58.728Z,7.70
2019-05-02T04:31:31.637Z,7.60
2019-05-02T04:33:58.103Z,7.70
2019-05-02T04:36:28.046Z,7.60
2019-05-02T04:38:59.310Z,7.60
2019-05-02T04:41:29.019Z,7.60
2019-05-02T04:44:01.561Z,7.60
2019-05-02T04:46:31.326Z,7.60
2019-05-02T04:49:01.607Z,7.60
2019-05-02T04:51:31.929Z,7.70
2019-05-02T04:54:00.776Z,7.80
2019-05-02T04:56:29.304Z,7.80
2019-05-02T04:59:01.889Z,7.90
2019-05-02T05:01:33.050Z,7.90
2019-05-02T05:04:02.988Z,7.90
2019-05-02T05:06:31.495Z,7.90
2019-05-02T05:09:04.199Z,7.90
2019-05-02T05:11:30.520Z,7.90
2019-05-02T05:14:00.334Z,7.90
2019-05-02T05:16:29.040Z,7.90
2019-05-02T05:18:57.874Z,8.00
2019-05-02T05:21:28.617Z,8.00
2019-05-02T05:24:01.310Z,8.00
2019-05-02T05:26:33.825Z,8.00
2019-05-02T05:29:01.736Z,8.10
2019-05-02T05:31:30.241Z,8.20
2019-05-02T05:33:59.046Z,8.30
2019-05-02T05:36:32.544Z,8.30
2019-05-02T05:38:58.434Z,8.50
2019-05-02T05:41:27.781Z,8.60
2019-05-02T05:43:57.750Z,8.70
2019-05-02T05:46:28.266Z,8.80
2019-05-02T05:48:58.231Z,8.90
2019-05-02T05:51:29.797Z,9.00
2019-05-02T05:54:02.813Z,9.00
2019-05-02T05:56:32.557Z,9.00
2019-05-02T05:58:59.651Z,9.10
2019-05-02T06:01:34.351Z,9.30
2019-05-02T06:03:58.686Z,9.40
2019-05-02T06:06:27.608Z,9.50
2019-05-02T06:08:56.381Z,9.50
2019-05-02T06:11:25.235Z,9.50
2019-05-02T06:13:54.869Z,9.50
2019-05-02T06:16:23.315Z,9.60
2019-05-02T06:18:51.849Z,9.50
2019-05-02T06:21:22.109Z,9.50
2019-05-02T06:23:50.857Z,9.60
2019-05-02T06:26:19.709Z,9.70
2019-05-02T06:28:48.509Z,9.70
2019-05-02T06:31:17.352Z,9.70
2019-05-02T06:33:46.485Z,9.70
2019-05-02T06:36:14.968Z,9.90
2019-05-02T06:38:43.611Z,10.00
2019-05-02T06:41:16.144Z,10.20
2019-05-02T06:43:46.553Z,10.30
2019-05-02T06:46:16.271Z,10.50
2019-05-02T06:48:48.297Z,10.60
2019-05-02T06:51:19.647Z,10.70
2019-05-02T06:53:47.114Z,10.90
2019-05-02T06:56:14.755Z,11.00
2019-05-02T06:58:43.602Z,11.00
2019-05-02T07:01:16.298Z,11.10
2019-05-02T07:03:46.190Z,11.10
2019-05-02T07:06:13.109Z,11.30
2019-05-02T07:08:41.895Z,11.40
2019-05-02T07:11:10.798Z,11.40
2019-05-02T07:13:41.899Z,11.40
2019-05-02T07:16:16.070Z,11.50
2019-05-02T07:18:53.858Z,11.50
2019-05-02T07:21:23.603Z,11.50
2019-05-02T07:23:53.547Z,11.70
2019-05-02T07:26:23.274Z,11.90
2019-05-02T07:28:53.554Z,12.10
2019-05-02T07:31:22.010Z,12.20
2019-05-02T07:33:50.754Z,12.30
2019-05-02T07:36:19.641Z,12.60
2019-05-02T07:38:49.518Z,12.90
2019-05-02T07:41:17.988Z,12.90
2019-05-02T07:43:46.451Z,13.00
2019-05-02T07:46:16.228Z,13.10
2019-05-02T07:48:49.028Z,13.10
2019-05-02T07:51:17.314Z,13.10
2019-05-02T07:53:48.551Z,13.10
2019-05-02T07:56:18.996Z,13.20
2019-05-02T07:58:48.165Z,13.40
2019-05-02T08:01:16.745Z,13.50
2019-05-02T08:03:45.392Z,13.70
2019-05-02T08:06:14.045Z,13.90
2019-05-02T08:08:42.919Z,14.00
2019-05-02T08:11:11.548Z,14.10
2019-05-02T08:13:40.023Z,14.10
2019-05-02T08:16:08.748Z,14.20
2019-05-02T08:18:37.232Z,14.30
2019-05-02T08:21:05.692Z,14.60
2019-05-02T08:23:34.531Z,14.70
2019-05-02T08:26:03.164Z,14.70
2019-05-02T08:28:42.021Z,14.80
2019-05-02T08:31:13.572Z,15.00
2019-05-02T08:33:41.473Z,15.20
2019-05-02T08:36:09.985Z,15.50
2019-05-02T08:38:38.804Z,15.70
2019-05-02T08:41:07.665Z,15.90
2019-05-02T08:43:40.306Z,16.00
2019-05-02T08:46:09.330Z,16.10
2019-05-02T08:48:41.713Z,16.20
2019-05-02T08:51:07.674Z,16.30
2019-05-02T08:53:36.530Z,16.40
2019-05-02T08:56:05.021Z,16.60
2019-05-02T08:58:33.824Z,16.40
2019-05-02T09:01:02.709Z,16.50
2019-05-02T09:03:38.956Z,16.90
2019-05-02T09:06:05.904Z,17.10
2019-05-02T09:08:32.224Z,17.40
2019-05-02T09:11:00.820Z,17.60
2019-05-02T09:13:30.138Z,17.60
2019-05-02T09:15:58.916Z,17.90
2019-05-02T09:18:35.286Z,18.30
2019-05-02T09:20:58.021Z,18.80
2019-05-02T09:23:32.386Z,19.10
2019-05-02T09:25:56.745Z,19.00
2019-05-02T09:28:25.552Z,19.10
2019-05-02T09:30:57.344Z,19.10
2019-05-02T09:33:24.620Z,19.20
2019-05-02T09:35:53.144Z,19.10
2019-05-02T09:38:22.276Z,19.20
2019-05-02T09:40:52.526Z,19.20
2019-05-02T09:43:22.839Z,19.20
2019-05-02T09:45:52.036Z,19.30
2019-05-02T09:48:22.897Z,19.40
2019-05-02T09:50:52.802Z,19.40
2019-05-02T09:53:25.495Z,19.50
2019-05-02T09:55:57.299Z,19.40
2019-05-02T09:58:24.096Z,19.50
2019-05-02T10:01:11.901Z,19.70
2019-05-02T10:03:42.345Z,19.90
2019-05-02T10:06:13.888Z,19.50
2019-05-02T10:08:43.570Z,19.50
2019-05-02T10:11:22.453Z,19.70
2019-05-02T10:13:51.842Z,19.80
2019-05-02T10:16:23.583Z,19.80
2019-05-02T10:18:52.406Z,19.80
2019-05-02T10:21:22.849Z,19.80
2019-05-02T10:23:59.135Z,19.60
2019-05-02T10:26:24.399Z,19.30
2019-05-02T10:28:53.898Z,19.10
2019-05-02T10:31:27.597Z,18.80
2019-05-02T10:33:56.157Z,18.50
2019-05-02T10:36:24.821Z,18.20
2019-05-02T10:38:54.958Z,18.00
2019-05-02T10:41:23.531Z,17.70
2019-05-02T10:43:56.656Z,17.50
2019-05-02T10:46:27.718Z,17.40
2019-05-02T10:49:05.410Z,17.30
2019-05-02T10:51:41.789Z,17.10
2019-05-02T10:54:07.866Z,17.00
2019-05-02T10:56:36.705Z,16.70
2019-05-02T10:59:05.494Z,16.40
2019-05-02T11:01:36.055Z,16.20
2019-05-02T11:04:08.327Z,16.10
2019-05-02T11:06:41.907Z,15.90
2019-05-02T11:09:12.027Z,15.80
2019-05-02T11:11:42.473Z,15.70
2019-05-02T11:14:18.997Z,15.70
2019-05-02T11:16:58.169Z,15.70
2019-05-02T11:19:31.909Z,15.60
2019-05-02T11:22:02.837Z,15.60
2019-05-02T11:24:34.121Z,15.50
2019-05-02T11:27:02.746Z,15.40
2019-05-02T11:29:32.256Z,15.40
2019-05-02T11:32:02.674Z,15.30
2019-05-02T11:34:36.567Z,15.30
2019-05-02T11:37:05.195Z,15.40
2019-05-02T11:39:43.778Z,15.50
2019-05-02T11:42:04.259Z,15.40
2019-05-02T11:44:32.791Z,15.40
2019-05-02T11:47:02.075Z,15.60
2019-05-02T11:49:32.025Z,15.70
2019-05-02T11:52:04.321Z,15.90
2019-05-02T11:54:32.605Z,16.00
2019-05-02T11:57:02.222Z,16.20
2019-05-02T11:59:31.970Z,16.40
2019-05-02T12:02:09.302Z,16.50
2019-05-02T12:04:41.691Z,16.40
2019-05-02T12:07:08.635Z,16.30
2019-05-02T12:09:37.130Z,16.20
2019-05-02T12:12:05.656Z,16.00
2019-05-02T12:14:36.410Z,16.00
2019-05-02T12:17:04.416Z,15.80
2019-05-02T12:19:33.204Z,15.80
2019-05-02T12:22:02.618Z,15.70
2019-05-02T12:24:36.368Z,15.70
2019-05-02T12:27:03.071Z,15.80
2019-05-02T12:29:33.385Z,15.70
2019-05-02T12:32:02.615Z,15.70
2019-05-02T12:34:32.546Z,15.80
2019-05-02T12:37:01.781Z,15.90
2019-05-02T12:39:31.702Z,15.90
2019-05-02T12:42:02.649Z,15.80
2019-05-02T12:44:31.855Z,15.80
2019-05-02T12:47:02.497Z,15.80
2019-05-02T12:49:32.472Z,15.80
2019-05-02T12:52:01.782Z,15.80
2019-05-02T12:54:32.585Z,15.80
2019-05-02T12:57:02.632Z,15.80
2019-05-02T12:59:32.224Z,15.70
2019-05-02T13:02:04.050Z,15.60
2019-05-02T13:04:32.696Z,15.50
2019-05-02T13:07:03.394Z,15.20
2019-05-02T13:09:32.540Z,15.00
2019-05-02T13:12:04.536Z,14.70
2019-05-02T13:14:33.150Z,14.60
2019-05-02T13:17:05.557Z,14.60
2019-05-02T13:19:40.651Z,14.50
2019-05-02T13:22:04.242Z,14.40
2019-05-02T13:24:34.661Z,14.20
2019-05-02T13:27:05.232Z,14.20
2019-05-02T13:29:36.239Z,14.30
2019-05-02T13:32:08.770Z,14.30
2019-05-02T13:34:58.293Z,14.30
2019-05-02T13:37:27.173Z,14.40
2019-05-02T13:40:02.362Z,14.40
2019-05-02T13:42:33.715Z,14.40
2019-05-02T13:45:04.084Z,14.40
2019-05-02T13:47:32.778Z,14.40
2019-05-02T13:50:03.727Z,14.50
2019-05-02T13:52:33.231Z,14.40
2019-05-02T13:55:02.216Z,14.40
2019-05-02T13:57:35.015Z,14.40
2019-05-02T14:00:02.330Z,14.40
2019-05-02T14:02:35.255Z,14.30
2019-05-02T14:05:06.454Z,14.20
2019-05-02T14:07:35.382Z,14.10
2019-05-02T14:10:08.031Z,13.90
2019-05-02T14:12:50.273Z,13.90
2019-05-02T14:15:22.115Z,13.80
2019-05-02T14:17:52.455Z,13.80
2019-05-02T14:20:22.380Z,13.80
2019-05-02T14:22:52.743Z,13.80
2019-05-02T14:25:22.530Z,13.90
2019-05-02T14:27:53.723Z,13.90
2019-05-02T14:30:36.190Z,13.90
2019-05-02T14:32:53.761Z,13.90
2019-05-02T14:35:28.129Z,13.90
2019-05-02T14:38:10.228Z,13.90
2019-05-02T14:40:56.862Z,13.90
2019-05-02T14:43:46.731Z,14.00
2019-05-02T14:46:14.128Z,14.10
2019-05-02T14:48:45.330Z,14.20
2019-05-02T14:51:16.883Z,14.30
2019-05-02T14:53:46.914Z,14.30
2019-05-02T14:56:20.041Z,14.30
2019-05-02T14:58:48.493Z,14.30
2019-05-02T15:01:21.813Z,14.40
2019-05-02T15:03:47.920Z,14.40
2019-05-02T15:06:18.058Z,14.40
2019-05-02T15:08:47.663Z,14.40
2019-05-02T15:11:17.756Z,14.40
2019-05-02T15:13:46.246Z,14.30
2019-05-02T15:16:17.682Z,14.40
2019-05-02T15:18:47.563Z,14.30
2019-05-02T15:21:18.380Z,14.30
2019-05-02T15:23:48.896Z,14.30
2019-05-02T15:26:20.068Z,14.50
2019-05-02T15:28:48.523Z,14.50
2019-05-02T15:31:24.255Z,14.60
2019-05-02T15:33:56.291Z,14.60
2019-05-02T15:36:25.051Z,14.70
2019-05-02T15:38:53.777Z,14.70
2019-05-02T15:41:22.693Z,14.70
2019-05-02T15:43:52.339Z,14.80
2019-05-02T15:46:25.544Z,14.80
2019-05-02T15:48:52.017Z,14.80
2019-05-02T15:51:22.985Z,14.70
2019-05-02T15:54:04.982Z,14.80
2019-05-02T15:56:25.873Z,14.80
2019-05-02T15:58:58.137Z,14.80
2019-05-02T16:01:36.585Z,14.80
2019-05-02T16:04:04.237Z,14.80
2019-05-02T16:06:33.944Z,14.80
2019-05-02T16:09:03.104Z,14.80
2019-05-02T16:11:33.281Z,14.80
2019-05-02T16:14:02.313Z,14.80
2019-05-02T16:16:36.552Z,14.80
2019-05-02T16:19:04.353Z,14.80
2019-05-02T16:21:42.508Z,14.80
2019-05-02T16:24:26.976Z,14.80
2019-05-02T16:26:57.373Z,14.80
2019-05-02T16:29:28.304Z,14.70
2019-05-02T16:31:59.659Z,14.70
2019-05-02T16:34:33.936Z,14.80
2019-05-02T16:37:13.572Z,14.90
2019-05-02T16:39:42.510Z,15.00
2019-05-02T16:42:12.438Z,15.10
2019-05-02T16:44:42.909Z,15.10
2019-05-02T16:47:13.929Z,15.20
2019-05-02T16:49:47.818Z,15.30
2019-05-02T16:52:16.063Z,15.30
2019-05-02T16:54:44.804Z,15.20
2019-05-02T16:57:17.393Z,15.10
2019-05-02T16:59:43.593Z,15.10
2019-05-02T17:02:12.391Z,15.00
2019-05-02T17:04:42.829Z,14.90
2019-05-02T17:07:13.269Z,14.80
2019-05-02T17:10:02.605Z,14.80
2019-05-02T17:12:31.829Z,14.70
2019-05-02T17:15:18.717Z,14.80
2019-05-02T17:17:47.876Z,14.80
2019-05-02T17:20:17.165Z,14.90
2019-05-02T17:22:50.231Z,15.00
2019-05-02T17:25:16.223Z,15.10
2019-05-02T17:27:44.960Z,15.10
2019-05-02T17:30:13.596Z,15.00
2019-05-02T17:32:42.426Z,14.90
2019-05-02T17:35:14.519Z,14.80
2019-05-02T17:37:48.601Z,14.70
2019-05-02T17:40:16.912Z,14.50
2019-05-02T17:42:44.483Z,14.40
2019-05-02T17:45:14.393Z,14.30
2019-05-02T17:47:43.129Z,14.20
2019-05-02T17:50:19.413Z,14.20
2019-05-02T17:52:56.110Z,14.10
2019-05-02T17:55:26.721Z,14.00
2019-05-02T17:57:55.185Z,14.00
2019-05-02T18:00:25.440Z,14.00
2019-05-02T18:02:54.173Z,13.90
2019-05-02T18:05:26.623Z,13.90
2019-05-02T18:07:53.253Z,13.80
2019-05-02T18:10:23.042Z,13.80
2019-05-02T18:12:56.631Z,13.80
2019-05-02T18:15:22.859Z,13.80
2019-05-02T18:17:52.330Z,13.80
2019-05-02T18:20:21.955Z,13.70
2019-05-02T18:22:51.937Z,13.60
2019-05-02T18:25:25.158Z,13.50
2019-05-02T18:27:51.891Z,13.40
2019-05-02T18:30:25.427Z,13.30
2019-05-02T18:32:52.832Z,13.20
2019-05-02T18:35:22.092Z,13.10
2019-05-02T18:37:51.784Z,13.00
2019-05-02T18:40:27.873Z,13.00
2019-05-02T18:42:51.913Z,13.00
2019-05-02T18:45:28.540Z,12.90
2019-05-02T18:48:02.368Z,12.80
2019-05-02T18:50:29.284Z,12.70
2019-05-02T18:52:58.262Z,12.60
2019-05-02T18:55:26.853Z,12.50
2019-05-02T18:57:57.076Z,12.40
2019-05-02T19:00:27.497Z,12.40
2019-05-02T19:02:56.923Z,12.30
2019-05-02T19:05:26.572Z,12.20
2019-05-02T19:07:56.452Z,12.20
2019-05-02T19:10:26.280Z,12.10
2019-05-02T19:12:56.049Z,12.10
2019-05-02T19:15:25.679Z,12.00
2019-05-02T19:17:54.132Z,12.00
2019-05-02T19:20:32.605Z,11.90
2019-05-02T19:23:02.956Z,11.80
2019-05-02T19:25:33.056Z,11.80
2019-05-02T19:28:03.212Z,11.70
2019-05-02T19:30:33.764Z,11.70
2019-05-02T19:33:06.048Z,11.70
2019-05-02T19:35:32.853Z,11.60
2019-05-02T19:38:03.870Z,11.50
2019-05-02T19:40:32.565Z,11.50
2019-05-02T19:43:05.904Z,11.60
2019-05-02T19:45:32.724Z,11.50
2019-05-02T19:48:02.622Z,11.50
2019-05-02T19:50:43.116Z,11.50
2019-05-02T19:53:15.254Z,11.60
2019-05-02T19:55:37.938Z,11.60
2019-05-02T19:58:07.170Z,11.60
2019-05-02T20:00:36.690Z,11.50
2019-05-02T20:03:07.066Z,11.50
2019-05-02T20:05:35.816Z,11.40
2019-05-02T20:08:04.814Z,11.30
2019-05-02T20:10:33.827Z,11.40
2019-05-02T20:13:04.432Z,11.40
2019-05-02T20:15:34.981Z,11.30
2019-05-02T20:18:04.772Z,11.30
2019-05-02T20:20:41.900Z,11.30
2019-05-02T20:23:16.256Z,11.20
2019-05-02T20:25:43.119Z,11.10
2019-05-02T20:28:12.154Z,11.10
2019-05-02T20:30:42.113Z,11.10
2019-05-02T20:33:12.742Z,11.10
2019-05-02T20:35:42.172Z,11.20
2019-05-02T20:38:11.787Z,11.20
2019-05-02T20:40:42.629Z,11.20
2019-05-02T20:43:12.166Z,11.20
2019-05-02T20:45:40.802Z,11.20
2019-05-02T20:48:09.418Z,11.20
2019-05-02T20:50:38.050Z,11.20
2019-05-02T20:53:06.913Z,11.20
2019-05-02T20:55:35.446Z,11.30
2019-05-02T20:58:04.269Z,11.40
2019-05-02T21:00:33.935Z,11.40
2019-05-02T21:03:02.867Z,11.40
2019-05-02T21:05:33.498Z,11.30
2019-05-02T21:08:18.594Z,11.40
2019-05-02T21:10:52.299Z,11.40
2019-05-02T21:13:23.152Z,11.50
2019-05-02T21:15:52.371Z,11.50
2019-05-02T21:18:22.101Z,11.60
2019-05-02T21:20:52.551Z,11.60
2019-05-02T21:23:21.852Z,11.60
2019-05-02T21:25:52.369Z,11.60
2019-05-02T21:28:22.556Z,11.60
2019-05-02T21:30:52.935Z,11.60
2019-05-02T21:33:39.122Z,11.50
2019-05-02T21:36:08.621Z,11.50
2019-05-02T21:38:37.514Z,11.50
2019-05-02T21:41:09.667Z,11.50
2019-05-02T21:43:38.318Z,11.50
2019-05-02T21:46:06.883Z,11.50
2019-05-02T21:48:38.217Z,11.40
2019-05-02T21:51:16.755Z,11.30
2019-05-02T21:53:55.033Z,11.30
2019-05-02T21:56:39.168Z,11.20
2019-05-02T21:59:09.444Z,11.20
2019-05-02T22:01:42.977Z,11.30
2019-05-02T22:04:13.415Z,11.20
2019-05-02T22:06:42.816Z,11.30
2019-05-02T22:09:12.458Z,11.30
2019-05-02T22:11:42.963Z,11.30
2019-05-02T22:14:13.241Z,11.30
2019-05-02T22:16:42.326Z,11.20
2019-05-02T22:19:12.745Z,11.20
2019-05-02T22:21:43.055Z,11.20
2019-05-02T22:24:14.324Z,11.20
2019-05-02T22:26:43.604Z,11.20
2019-05-02T22:29:12.667Z,11.10
2019-05-02T22:31:43.053Z,11.10
2019-05-02T22:34:12.905Z,11.00
2019-05-02T22:36:42.238Z,11.00
2019-05-02T22:39:15.707Z,11.00
2019-05-02T22:41:44.268Z,11.00
2019-05-02T22:44:13.310Z,10.90
2019-05-02T22:46:44.494Z,10.90
2019-05-02T22:49:15.205Z,11.00
2019-05-02T22:51:44.485Z,11.00
2019-05-02T22:54:24.122Z,11.00
2019-05-02T22:56:43.824Z,11.00
2019-05-02T22:59:12.470Z,10.90
2019-05-02T23:01:42.245Z,10.90
2019-05-02T23:04:12.800Z,10.90
2019-05-02T23:06:43.877Z,10.80
2019-05-02T23:09:12.687Z,10.80
2019-05-02T23:11:43.546Z,10.70
2019-05-02T23:14:12.105Z,10.70
2019-05-02T23:16:42.643Z,10.70
2019-05-02T23:19:12.340Z,10.60
2019-05-02T23:21:42.230Z,10.60
2019-05-02T23:24:14.610Z,10.60
2019-05-02T23:26:54.321Z,10.50
2019-05-02T23:29:23.155Z,10.50
2019-05-02T23:31:52.026Z,10.50
2019-05-02T23:34:23.333Z,10.50
2019-05-02T23:36:52.262Z,10.50
2019-05-02T23:39:20.998Z,10.50
2019-05-02T23:41:49.559Z,10.50
2019-05-02T23:44:18.410Z,10.50
2019-05-02T23:46:48.507Z,10.50
2019-05-02T23:49:17.453Z,10.50
2019-05-02T23:51:46.336Z,10.50
2019-05-02T23:54:14.894Z,10.50
2019-05-02T23:56:43.817Z,10.50
2019-05-02T23:59:12.446Z,10.50
